sensor_id;sensor_type;location;lat;lon;timestamp;pressure;altitude;pressure_sealevel;temperature;humidity
43681;BME280;29281;50.356;30.894;2023-03-26T00:00:30;98569.35;;;10.22;100.00
43681;BME280;29281;50.356;30.894;2023-03-26T00:01:35;98566.14;;;10.18;100.00
43681;BME280;29281;50.356;30.894;2023-03-26T00:02:38;98569.58;;;10.09;100.00
43681;BME280;29281;50.356;30.894;2023-03-26T00:03:41;98572.98;;;10.21;100.00
43681;BME280;29281;50.356;30.894;2023-03-26T00:04:46;98568.06;;;10.26;100.00
43681;BME280;29281;50.356;30.894;2023-03-26T00:05:49;98567.08;;;10.17;100.00
43681;BME280;29281;50.356;30.894;2023-03-26T00:06:58;98569.45;;;10.11;100.00
43681;BME280;29281;50.356;30.894;2023-03-26T00:08:03;98562.75;;;10.16;100.00
43681;BME280;29281;50.356;30.894;2023-03-26T00:09:08;98568.05;;;10.16;100.00
43681;BME280;29281;50.356;30.894;2023-03-26T00:10:15;98564.70;;;10.14;100.00
43681;BME280;29281;50.356;30.894;2023-03-26T00:11:19;98568.33;;;10.13;100.00
43681;BME280;29281;50.356;30.894;2023-03-26T00:12:25;98568.91;;;10.07;100.00
43681;BME280;29281;50.356;30.894;2023-03-26T00:13:29;98560.09;;;10.16;100.00
43681;BME280;29281;50.356;30.894;2023-03-26T00:14:35;98559.72;;;10.21;100.00
43681;BME280;29281;50.356;30.894;2023-03-26T00:15:39;98564.14;;;10.11;100.00
43681;BME280;29281;50.356;30.894;2023-03-26T00:16:43;98560.09;;;10.16;100.00
43681;BME280;29281;50.356;30.894;2023-03-26T00:17:47;98555.77;;;10.15;100.00
43681;BME280;29281;50.356;30.894;2023-03-26T00:18:53;98560.25;;;10.25;100.00
43681;BME280;29281;50.356;30.894;2023-03-26T00:19:56;98553.67;;;10.09;100.00
43681;BME280;29281;50.356;30.894;2023-03-26T00:21:02;98554.94;;;10.25;100.00
43681;BME280;29281;50.356;30.894;2023-03-26T00:22:06;98551.59;;;10.32;100.00
43681;BME280;29281;50.356;30.894;2023-03-26T00:23:09;98555.92;;;10.33;100.00
43681;BME280;29281;50.356;30.894;2023-03-26T00:24:12;98551.30;;;10.16;100.00
43681;BME280;29281;50.356;30.894;2023-03-26T00:25:17;98556.47;;;10.17;100.00
43681;BME280;29281;50.356;30.894;2023-03-26T00:26:21;98555.20;;;10.12;100.00
43681;BME280;29281;50.356;30.894;2023-03-26T00:27:27;98553.39;;;10.12;100.00
43681;BME280;29281;50.356;30.894;2023-03-26T00:28:31;98548.52;;;10.17;100.00
43681;BME280;29281;50.356;30.894;2023-03-26T00:29:34;98555.25;;;10.21;100.00
43681;BME280;29281;50.356;30.894;2023-03-26T00:30:38;98543.48;;;10.24;100.00
43681;BME280;29281;50.356;30.894;2023-03-26T00:31:43;98549.94;;;10.21;100.00
43681;BME280;29281;50.356;30.894;2023-03-26T00:32:49;98545.86;;;10.27;100.00
43681;BME280;29281;50.356;30.894;2023-03-26T00:33:54;98546.41;;;10.11;100.00
43681;BME280;29281;50.356;30.894;2023-03-26T00:34:59;98547.56;;;10.18;100.00
43681;BME280;29281;50.356;30.894;2023-03-26T00:36:05;98538.63;;;10.19;100.00
43681;BME280;29281;50.356;30.894;2023-03-26T00:37:15;98549.80;;;10.23;100.00
43681;BME280;29281;50.356;30.894;2023-03-26T00:38:21;98550.73;;;10.12;100.00
43681;BME280;29281;50.356;30.894;2023-03-26T00:39:25;98541.53;;;10.16;100.00
43681;BME280;29281;50.356;30.894;2023-03-26T00:40:32;98546.98;;;10.15;100.00
43681;BME280;29281;50.356;30.894;2023-03-26T00:41:38;98539.16;;;10.13;100.00
43681;BME280;29281;50.356;30.894;2023-03-26T00:42:45;98540.70;;;10.26;100.00
43681;BME280;29281;50.356;30.894;2023-03-26T00:43:50;98540.28;;;10.30;100.00
43681;BME280;29281;50.356;30.894;2023-03-26T00:44:54;98542.93;;;10.30;100.00
43681;BME280;29281;50.356;30.894;2023-03-26T00:46:00;98537.63;;;10.30;100.00
43681;BME280;29281;50.356;30.894;2023-03-26T00:47:04;98536.23;;;10.26;100.00
43681;BME280;29281;50.356;30.894;2023-03-26T00:48:08;98535.00;;;10.20;100.00
43681;BME280;29281;50.356;30.894;2023-03-26T00:49:11;98533.84;;;10.13;100.00
43681;BME280;29281;50.356;30.894;2023-03-26T00:50:20;98528.56;;;10.04;100.00
43681;BME280;29281;50.356;30.894;2023-03-26T00:51:26;98537.90;;;10.17;100.00
43681;BME280;29281;50.356;30.894;2023-03-26T00:52:31;98534.41;;;10.17;100.00
43681;BME280;29281;50.356;30.894;2023-03-26T00:53:34;98535.25;;;10.27;100.00
43681;BME280;29281;50.356;30.894;2023-03-26T00:54:38;98540.14;;;10.32;100.00
43681;BME280;29281;50.356;30.894;2023-03-26T00:55:42;98539.30;;;10.31;100.00
43681;BME280;29281;50.356;30.894;2023-03-26T00:56:45;98532.59;;;10.37;100.00
43681;BME280;29281;50.356;30.894;2023-03-26T00:57:49;98528.41;;;10.34;100.00
43681;BME280;29281;50.356;30.894;2023-03-26T00:58:53;98527.30;;;10.37;100.00
43681;BME280;29281;50.356;30.894;2023-03-26T00:59:55;98537.91;;;10.27;100.00
43681;BME280;29281;50.356;30.894;2023-03-26T01:01:00;98531.34;;;10.31;100.00
43681;BME280;29281;50.356;30.894;2023-03-26T01:02:05;98532.45;;;10.38;100.00
43681;BME280;29281;50.356;30.894;2023-03-26T01:03:11;98545.73;;;10.38;100.00
43681;BME280;29281;50.356;30.894;2023-03-26T01:04:24;98541.26;;;10.29;100.00
43681;BME280;29281;50.356;30.894;2023-03-26T01:06:38;98536.23;;;10.16;100.00
43681;BME280;29281;50.356;30.894;2023-03-26T01:07:43;98542.82;;;10.22;100.00
43681;BME280;29281;50.356;30.894;2023-03-26T01:08:48;98538.47;;;10.31;100.00
43681;BME280;29281;50.356;30.894;2023-03-26T01:09:54;98540.55;;;10.17;100.00
43681;BME280;29281;50.356;30.894;2023-03-26T01:11:23;98535.25;;;10.27;100.00
43681;BME280;29281;50.356;30.894;2023-03-26T01:12:13;98535.53;;;10.34;100.00
43681;BME280;29281;50.356;30.894;2023-03-26T01:13:20;98529.80;;;10.38;100.00
43681;BME280;29281;50.356;30.894;2023-03-26T01:14:24;98522.96;;;10.36;100.00
43681;BME280;29281;50.356;30.894;2023-03-26T01:15:30;98529.11;;;10.27;100.00
43681;BME280;29281;50.356;30.894;2023-03-26T01:17:45;98523.34;;;10.50;100.00
43681;BME280;29281;50.356;30.894;2023-03-26T01:18:47;98521.39;;;10.43;100.00
43681;BME280;29281;50.356;30.894;2023-03-26T01:19:56;98521.01;;;10.28;100.00
43681;BME280;29281;50.356;30.894;2023-03-26T01:20:59;98514.13;;;10.45;100.00
43681;BME280;29281;50.356;30.894;2023-03-26T01:22:05;98514.83;;;10.47;100.00
43681;BME280;29281;50.356;30.894;2023-03-26T01:23:12;98512.31;;;10.45;100.00
43681;BME280;29281;50.356;30.894;2023-03-26T01:24:16;98510.92;;;10.41;100.00
43681;BME280;29281;50.356;30.894;2023-03-26T01:25:22;98520.69;;;10.41;100.00
43681;BME280;29281;50.356;30.894;2023-03-26T01:27:37;98510.39;;;10.38;100.00
43681;BME280;29281;50.356;30.894;2023-03-26T01:28:42;98511.33;;;10.46;100.00
43681;BME280;29281;50.356;30.894;2023-03-26T01:29:58;98509.93;;;10.52;100.00
43681;BME280;29281;50.356;30.894;2023-03-26T01:31:05;98512.27;;;10.55;100.00
43681;BME280;29281;50.356;30.894;2023-03-26T01:33:29;98508.86;;;10.35;100.00
43681;BME280;29281;50.356;30.894;2023-03-26T01:34:39;98508.68;;;10.46;100.00
43681;BME280;29281;50.356;30.894;2023-03-26T01:36:15;98512.45;;;10.44;100.00
43681;BME280;29281;50.356;30.894;2023-03-26T01:36:51;98510.07;;;10.50;100.00
43681;BME280;29281;50.356;30.894;2023-03-26T01:39:23;98511.89;;;10.40;100.00
43681;BME280;29281;50.356;30.894;2023-03-26T01:40:34;98511.28;;;10.56;100.00
43681;BME280;29281;50.356;30.894;2023-03-26T01:41:56;98516.59;;;10.56;100.00
43681;BME280;29281;50.356;30.894;2023-03-26T01:43:07;98513.80;;;10.57;100.00
43681;BME280;29281;50.356;30.894;2023-03-26T01:45:23;98508.39;;;10.49;100.00
43681;BME280;29281;50.356;30.894;2023-03-26T01:46:28;98507.56;;;10.49;100.00
43681;BME280;29281;50.356;30.894;2023-03-26T01:47:41;98505.31;;;10.54;100.00
43681;BME280;29281;50.356;30.894;2023-03-26T01:48:42;98512.27;;;10.55;100.00
43681;BME280;29281;50.356;30.894;2023-03-26T01:49:48;98511.28;;;10.56;100.00
43681;BME280;29281;50.356;30.894;2023-03-26T01:50:51;98507.09;;;10.63;100.00
43681;BME280;29281;50.356;30.894;2023-03-26T01:51:56;98511.14;;;10.57;100.00
43681;BME280;29281;50.356;30.894;2023-03-26T01:53:01;98512.97;;;10.57;100.00
43681;BME280;29281;50.356;30.894;2023-03-26T01:54:05;98507.00;;;10.45;100.00
43681;BME280;29281;50.356;30.894;2023-03-26T01:55:09;98505.98;;;10.56;100.00
43681;BME280;29281;50.356;30.894;2023-03-26T01:56:17;98508.77;;;10.64;100.00
43681;BME280;29281;50.356;30.894;2023-03-26T02:01:02;98507.53;;;10.86;100.00
43681;BME280;29281;50.356;30.894;2023-03-26T02:03:20;98494.31;;;10.76;100.00
43681;BME280;29281;50.356;30.894;2023-03-26T02:05:36;98508.33;;;10.69;100.00
43681;BME280;29281;50.356;30.894;2023-03-26T02:06:44;98498.50;;;10.79;100.00
43681;BME280;29281;50.356;30.894;2023-03-26T02:07:52;98494.59;;;10.73;100.00
43681;BME280;29281;50.356;30.894;2023-03-26T02:09:01;98500.20;;;10.70;100.00
43681;BME280;29281;50.356;30.894;2023-03-26T02:10:10;98494.88;;;10.70;100.00
43681;BME280;29281;50.356;30.894;2023-03-26T02:11:13;98491.23;;;10.81;100.00
43681;BME280;29281;50.356;30.894;2023-03-26T02:12:19;98487.96;;;10.87;100.00
43681;BME280;29281;50.356;30.894;2023-03-26T02:13:23;98489.49;;;10.89;100.00
43681;BME280;29281;50.356;30.894;2023-03-26T02:14:28;98483.81;;;10.84;100.00
43681;BME280;29281;50.356;30.894;2023-03-26T02:15:32;98494.25;;;10.86;100.00
43681;BME280;29281;50.356;30.894;2023-03-26T02:16:37;98490.53;;;10.79;100.00
43681;BME280;29281;50.356;30.894;2023-03-26T02:17:41;98492.98;;;10.90;100.00
43681;BME280;29281;50.356;30.894;2023-03-26T02:18:45;98489.46;;;10.99;100.00
43681;BME280;29281;50.356;30.894;2023-03-26T02:19:51;98491.65;;;11.04;100.00
43681;BME280;29281;50.356;30.894;2023-03-26T02:20:56;98498.34;;;11.08;100.00
43681;BME280;29281;50.356;30.894;2023-03-26T02:22:00;98489.25;;;11.10;100.00
43681;BME280;29281;50.356;30.894;2023-03-26T02:23:04;98488.81;;;11.15;100.00
43681;BME280;29281;50.356;30.894;2023-03-26T02:24:11;98487.50;;;11.19;100.00
43681;BME280;29281;50.356;30.894;2023-03-26T02:25:16;98485.31;;;11.14;100.00
43681;BME280;29281;50.356;30.894;2023-03-26T02:26:20;98491.47;;;11.15;100.00
43681;BME280;29281;50.356;30.894;2023-03-26T02:27:30;98493.95;;;11.16;100.00
43681;BME280;29281;50.356;30.894;2023-03-26T02:28:33;98502.91;;;11.15;100.00
43681;BME280;29281;50.356;30.894;2023-03-26T02:29:37;98498.97;;;11.19;100.00
43681;BME280;29281;50.356;30.894;2023-03-26T02:30:42;98499.44;;;11.15;100.00
43681;BME280;29281;50.356;30.894;2023-03-26T02:31:49;98503.45;;;11.19;100.00
43681;BME280;29281;50.356;30.894;2023-03-26T02:32:53;98502.31;;;11.21;100.00
43681;BME280;29281;50.356;30.894;2023-03-26T02:33:57;98502.02;;;11.24;100.00
43681;BME280;29281;50.356;30.894;2023-03-26T02:35:02;98495.58;;;11.27;100.00
43681;BME280;29281;50.356;30.894;2023-03-26T02:36:08;98492.45;;;11.14;100.00
43681;BME280;29281;50.356;30.894;2023-03-26T02:37:15;98496.78;;;11.15;100.00
43681;BME280;29281;50.356;30.894;2023-03-26T02:38:22;98502.56;;;11.28;100.00
43681;BME280;29281;50.356;30.894;2023-03-26T02:39:29;98501.95;;;11.34;100.00
43681;BME280;29281;50.356;30.894;2023-03-26T02:40:33;98500.13;;;11.35;100.00
43681;BME280;29281;50.356;30.894;2023-03-26T02:41:37;98499.77;;;11.30;100.00
43681;BME280;29281;50.356;30.894;2023-03-26T02:42:43;98500.89;;;11.27;100.00
43681;BME280;29281;50.356;30.894;2023-03-26T02:43:45;98498.20;;;11.09;100.00
43681;BME280;29281;50.356;30.894;2023-03-26T02:44:50;98498.82;;;11.21;100.00
43681;BME280;29281;50.356;30.894;2023-03-26T02:45:56;98503.08;;;11.14;100.00
43681;BME280;29281;50.356;30.894;2023-03-26T02:47:09;98499.07;;;11.00;100.00
43681;BME280;29281;50.356;30.894;2023-03-26T02:48:29;98497.43;;;10.99;100.00
43681;BME280;29281;50.356;30.894;2023-03-26T02:49:37;98498.13;;;11.19;100.00
43681;BME280;29281;50.356;30.894;2023-03-26T02:50:41;98499.44;;;11.33;100.00
43681;BME280;29281;50.356;30.894;2023-03-26T02:51:52;98502.86;;;11.25;100.00
43681;BME280;29281;50.356;30.894;2023-03-26T02:53:01;98504.02;;;11.40;100.00
43681;BME280;29281;50.356;30.894;2023-03-26T02:54:05;98503.19;;;11.40;100.00
43681;BME280;29281;50.356;30.894;2023-03-26T02:55:11;98504.70;;;11.42;100.00
43681;BME280;29281;50.356;30.894;2023-03-26T02:56:17;98502.05;;;11.42;100.00
43681;BME280;29281;50.356;30.894;2023-03-26T02:57:29;98501.22;;;11.42;100.00
43681;BME280;29281;50.356;30.894;2023-03-26T02:58:35;98500.54;;;11.57;100.00
43681;BME280;29281;50.356;30.894;2023-03-26T02:59:37;98500.99;;;11.71;100.00
43681;BME280;29281;50.356;30.894;2023-03-26T03:00:45;98503.11;;;11.67;100.00
43681;BME280;29281;50.356;30.894;2023-03-26T03:01:50;98505.23;;;11.63;100.00
43681;BME280;29281;50.356;30.894;2023-03-26T03:02:57;98509.95;;;11.52;100.00
43681;BME280;29281;50.356;30.894;2023-03-26T03:04:06;98510.93;;;11.51;100.00
43681;BME280;29281;50.356;30.894;2023-03-26T03:05:10;98523.63;;;11.57;100.00
43681;BME280;29281;50.356;30.894;2023-03-26T03:06:15;98521.52;;;11.60;100.00
43681;BME280;29281;50.356;30.894;2023-03-26T03:07:22;98527.81;;;11.59;100.00
43681;BME280;29281;50.356;30.894;2023-03-26T03:08:27;98527.81;;;11.59;100.00
43681;BME280;29281;50.356;30.894;2023-03-26T03:09:35;98526.44;;;11.55;100.00
43681;BME280;29281;50.356;30.894;2023-03-26T03:11:02;98537.77;;;11.57;100.00
43681;BME280;29281;50.356;30.894;2023-03-26T03:12:06;98536.20;;;11.37;100.00
43681;BME280;29281;50.356;30.894;2023-03-26T03:13:10;98539.02;;;11.36;100.00
43681;BME280;29281;50.356;30.894;2023-03-26T03:14:13;98547.27;;;11.15;100.00
43681;BME280;29281;50.356;30.894;2023-03-26T03:15:20;98554.48;;;11.22;100.00
43681;BME280;29281;50.356;30.894;2023-03-26T03:16:26;98549.09;;;11.32;100.00
43681;BME280;29281;50.356;30.894;2023-03-26T03:17:31;98549.70;;;11.26;100.00
43681;BME280;29281;50.356;30.894;2023-03-26T03:18:34;98564.81;;;11.25;100.00
43681;BME280;29281;50.356;30.894;2023-03-26T03:19:38;98573.56;;;11.08;100.00
43681;BME280;29281;50.356;30.894;2023-03-26T03:20:42;98569.17;;;11.17;100.00
43681;BME280;29281;50.356;30.894;2023-03-26T03:21:46;98571.31;;;11.13;100.00
43681;BME280;29281;50.356;30.894;2023-03-26T03:22:49;98576.52;;;11.05;100.00
43681;BME280;29281;50.356;30.894;2023-03-26T03:23:54;98576.66;;;11.04;100.00
43681;BME280;29281;50.356;30.894;2023-03-26T03:25:00;98581.59;;;10.99;100.00
43681;BME280;29281;50.356;30.894;2023-03-26T03:26:03;98585.80;;;10.91;100.00
43681;BME280;29281;50.356;30.894;2023-03-26T03:27:09;98594.31;;;10.95;100.00
43681;BME280;29281;50.356;30.894;2023-03-26T03:28:18;98597.53;;;10.99;100.00
43681;BME280;29281;50.356;30.894;2023-03-26T03:29:22;98602.05;;;10.79;100.00
43681;BME280;29281;50.356;30.894;2023-03-26T03:30:27;98602.34;;;10.76;100.00
43681;BME280;29281;50.356;30.894;2023-03-26T03:31:43;98612.07;;;10.95;100.00
43681;BME280;29281;50.356;30.894;2023-03-26T03:32:48;98617.95;;;10.88;100.00
43681;BME280;29281;50.356;30.894;2023-03-26T03:33:55;98621.06;;;10.84;100.00
43681;BME280;29281;50.356;30.894;2023-03-26T03:34:59;98619.48;;;10.91;100.00
43681;BME280;29281;50.356;30.894;2023-03-26T03:36:06;98626.19;;;10.95;100.00
43681;BME280;29281;50.356;30.894;2023-03-26T03:37:16;98623.95;;;10.90;100.00
43681;BME280;29281;50.356;30.894;2023-03-26T03:38:21;98622.50;;;10.69;100.00
43681;BME280;29281;50.356;30.894;2023-03-26T03:39:27;98620.53;;;10.61;100.00
43681;BME280;29281;50.356;30.894;2023-03-26T03:40:33;98623.75;;;10.55;100.00
43681;BME280;29281;50.356;30.894;2023-03-26T03:41:36;98619.84;;;10.59;100.00
43681;BME280;29281;50.356;30.894;2023-03-26T03:42:41;98629.89;;;10.55;100.00
43681;BME280;29281;50.356;30.894;2023-03-26T03:43:44;98622.08;;;10.64;100.00
43681;BME280;29281;50.356;30.894;2023-03-26T03:44:50;98627.23;;;10.55;100.00
43681;BME280;29281;50.356;30.894;2023-03-26T03:46:00;98624.17;;;10.60;100.00
43681;BME280;29281;50.356;30.894;2023-03-26T03:47:07;98628.36;;;10.63;100.00
43681;BME280;29281;50.356;30.894;2023-03-26T03:48:13;98622.52;;;10.49;100.00
43681;BME280;29281;50.356;30.894;2023-03-26T03:49:17;98626.69;;;10.62;100.00
43681;BME280;29281;50.356;30.894;2023-03-26T03:50:21;98625.28;;;10.57;100.00
43681;BME280;29281;50.356;30.894;2023-03-26T03:51:37;98637.86;;;10.65;100.00
43681;BME280;29281;50.356;30.894;2023-03-26T03:52:42;98639.68;;;10.65;100.00
43681;BME280;29281;50.356;30.894;2023-03-26T03:53:48;98641.22;;;10.67;100.00
43681;BME280;29281;50.356;30.894;2023-03-26T03:54:54;98652.11;;;10.64;100.00
43681;BME280;29281;50.356;30.894;2023-03-26T03:56:02;98649.32;;;10.66;100.00
43681;BME280;29281;50.356;30.894;2023-03-26T03:57:12;98649.18;;;10.67;100.00
43681;BME280;29281;50.356;30.894;2023-03-26T03:58:21;98649.32;;;10.66;100.00
43681;BME280;29281;50.356;30.894;2023-03-26T03:59:26;98645.41;;;10.60;100.00
43681;BME280;29281;50.356;30.894;2023-03-26T04:00:29;98638.98;;;10.63;100.00
43681;BME280;29281;50.356;30.894;2023-03-26T04:01:37;98631.45;;;10.48;100.00
43681;BME280;29281;50.356;30.894;2023-03-26T04:02:44;98643.45;;;10.62;100.00
43681;BME280;29281;50.356;30.894;2023-03-26T04:03:48;98645.55;;;10.68;100.00
43681;BME280;29281;50.356;30.894;2023-03-26T04:04:52;98651.53;;;10.80;100.00
43681;BME280;29281;50.356;30.894;2023-03-26T04:05:56;98646.04;;;10.91;100.00
43681;BME280;29281;50.356;30.894;2023-03-26T04:07:00;98646.55;;;11.04;100.00
43681;BME280;29281;50.356;30.894;2023-03-26T04:08:05;98646.97;;;11.09;100.00
43681;BME280;29281;50.356;30.894;2023-03-26T04:09:12;98654.38;;;11.06;100.00
43681;BME280;29281;50.356;30.894;2023-03-26T04:10:15;98649.39;;;10.93;100.00
43681;BME280;29281;50.356;30.894;2023-03-26T04:11:25;98656.52;;;10.92;100.00
43681;BME280;29281;50.356;30.894;2023-03-26T04:12:51;98658.76;;;10.97;100.00
43681;BME280;29281;50.356;30.894;2023-03-26T04:14:00;98660.30;;;10.90;100.00
43681;BME280;29281;50.356;30.894;2023-03-26T04:15:10;98664.07;;;10.97;100.00
43681;BME280;29281;50.356;30.894;2023-03-26T04:16:14;98663.09;;;10.88;100.00
43681;BME280;29281;50.356;30.894;2023-03-26T04:17:18;98661.14;;;10.90;100.00
43681;BME280;29281;50.356;30.894;2023-03-26T04:18:25;98668.27;;;11.00;100.00
43681;BME280;29281;50.356;30.894;2023-03-26T04:19:31;98663.48;;;11.03;100.00
43681;BME280;29281;50.356;30.894;2023-03-26T04:20:38;98666.31;;;10.92;100.00
43681;BME280;29281;50.356;30.894;2023-03-26T04:21:44;98669.80;;;10.92;100.00
43681;BME280;29281;50.356;30.894;2023-03-26T04:22:47;98674.28;;;10.92;100.00
43681;BME280;29281;50.356;30.894;2023-03-26T04:23:52;98669.80;;;10.92;100.00
43681;BME280;29281;50.356;30.894;2023-03-26T04:24:59;98676.23;;;10.90;100.00
43681;BME280;29281;50.356;30.894;2023-03-26T04:26:07;98671.90;;;10.99;100.00
43681;BME280;29281;50.356;30.894;2023-03-26T04:27:20;98674.70;;;10.87;100.00
43681;BME280;29281;50.356;30.894;2023-03-26T04:28:29;98675.29;;;10.81;100.00
43681;BME280;29281;50.356;30.894;2023-03-26T04:29:47;98677.49;;;10.96;100.00
43681;BME280;29281;50.356;30.894;2023-03-26T04:30:57;98682.52;;;10.89;100.00
43681;BME280;29281;50.356;30.894;2023-03-26T04:32:09;98677.49;;;10.96;100.00
43681;BME280;29281;50.356;30.894;2023-03-26T04:33:15;98681.83;;;10.87;100.00
43681;BME280;29281;50.356;30.894;2023-03-26T04:34:20;98682.95;;;10.94;100.00
43681;BME280;29281;50.356;30.894;2023-03-26T04:35:30;98685.18;;;10.89;100.00
43681;BME280;29281;50.356;30.894;2023-03-26T04:36:38;98683.92;;;10.93;100.00
43681;BME280;29281;50.356;30.894;2023-03-26T04:37:47;98681.97;;;10.95;100.00
43681;BME280;29281;50.356;30.894;2023-03-26T04:38:52;98685.88;;;10.91;100.00
43681;BME280;29281;50.356;30.894;2023-03-26T04:39:59;98690.77;;;10.86;100.00
43681;BME280;29281;50.356;30.894;2023-03-26T04:41:04;98690.04;;;11.03;100.00
43681;BME280;29281;50.356;30.894;2023-03-26T04:42:16;98686.54;;;11.12;100.00
43681;BME280;29281;50.356;30.894;2023-03-26T04:43:24;98701.78;;;11.10;100.00
43681;BME280;29281;50.356;30.894;2023-03-26T04:44:31;98706.22;;;11.19;100.00
43681;BME280;29281;50.356;30.894;2023-03-26T04:45:40;98706.92;;;11.21;100.00
43681;BME280;29281;50.356;30.894;2023-03-26T04:46:44;98702.80;;;11.00;100.00
43681;BME280;29281;50.356;30.894;2023-03-26T04:47:51;98707.09;;;11.01;100.00
43681;BME280;29281;50.356;30.894;2023-03-26T04:48:54;98712.41;;;11.10;100.00
43681;BME280;29281;50.356;30.894;2023-03-26T04:49:59;98709.84;;;11.28;100.00
43681;BME280;29281;50.356;30.894;2023-03-26T04:51:03;98709.15;;;11.26;100.00
43681;BME280;29281;50.356;30.894;2023-03-26T04:52:10;98712.37;;;11.20;100.00
43681;BME280;29281;50.356;30.894;2023-03-26T04:53:16;98715.17;;;11.18;100.00
43681;BME280;29281;50.356;30.894;2023-03-26T04:54:22;98726.17;;;11.33;100.00
43681;BME280;29281;50.356;30.894;2023-03-26T04:55:35;98723.00;;;11.30;100.00
43681;BME280;29281;50.356;30.894;2023-03-26T04:56:54;98728.13;;;11.31;100.00
43681;BME280;29281;50.356;30.894;2023-03-26T04:58:00;98720.44;;;11.38;100.00
43681;BME280;29281;50.356;30.894;2023-03-26T04:59:12;98726.55;;;11.48;100.00
43681;BME280;29281;50.356;30.894;2023-03-26T05:00:17;98730.78;;;11.41;100.00
43681;BME280;29281;50.356;30.894;2023-03-26T05:01:23;98730.69;;;11.23;100.00
43681;BME280;29281;50.356;30.894;2023-03-26T05:02:26;98731.56;;;11.04;100.00
43681;BME280;29281;50.356;30.894;2023-03-26T05:03:31;98730.47;;;10.97;100.00
43681;BME280;29281;50.356;30.894;2023-03-26T05:04:37;98739.55;;;10.85;100.00
43681;BME280;29281;50.356;30.894;2023-03-26T05:05:43;98738.44;;;10.87;100.00
43681;BME280;29281;50.356;30.894;2023-03-26T05:06:51;98741.63;;;11.10;100.00
43681;BME280;29281;50.356;30.894;2023-03-26T05:07:54;98737.30;;;11.09;100.00
43681;BME280;29281;50.356;30.894;2023-03-26T05:08:59;98730.83;;;11.21;100.00
43681;BME280;29281;50.356;30.894;2023-03-26T05:10:06;98742.16;;;11.23;100.00
43681;BME280;29281;50.356;30.894;2023-03-26T05:11:12;98745.69;;;11.14;100.00
43681;BME280;29281;50.356;30.894;2023-03-26T05:12:15;98743.87;;;11.15;100.00
43681;BME280;29281;50.356;30.894;2023-03-26T05:13:29;98746.77;;;11.21;100.00
43681;BME280;29281;50.356;30.894;2023-03-26T05:14:34;98744.78;;;11.33;100.00
43681;BME280;29281;50.356;30.894;2023-03-26T05:15:39;98753.48;;;11.25;100.00
43681;BME280;29281;50.356;30.894;2023-03-26T05:16:47;98753.87;;;11.40;100.00
43681;BME280;29281;50.356;30.894;2023-03-26T05:17:52;98754.48;;;11.61;100.00
43681;BME280;29281;50.356;30.894;2023-03-26T05:19:12;98756.75;;;11.56;100.00
43681;BME280;29281;50.356;30.894;2023-03-26T05:20:20;98761.23;;;11.56;100.00
43681;BME280;29281;50.356;30.894;2023-03-26T05:21:26;98756.75;;;11.93;100.00
43681;BME280;29281;50.356;30.894;2023-03-26T05:22:29;98756.78;;;13.95;100.00
43681;BME280;29281;50.356;30.894;2023-03-26T05:23:43;98760.55;;;14.77;100.00
43681;BME280;29281;50.356;30.894;2023-03-26T05:24:47;98769.83;;;15.78;98.53
43681;BME280;29281;50.356;30.894;2023-03-26T05:25:49;98775.22;;;17.02;90.16
43681;BME280;29281;50.356;30.894;2023-03-26T05:26:57;98789.29;;;17.42;85.22
43681;BME280;29281;50.356;30.894;2023-03-26T05:28:02;98788.15;;;17.21;85.17
43681;BME280;29281;50.356;30.894;2023-03-26T05:29:10;98788.94;;;17.07;85.68
43681;BME280;29281;50.356;30.894;2023-03-26T05:30:19;98787.01;;;17.16;85.92
43681;BME280;29281;50.356;30.894;2023-03-26T05:31:25;98796.45;;;18.02;80.06
43681;BME280;29281;50.356;30.894;2023-03-26T05:32:31;98796.35;;;17.57;81.22
43681;BME280;29281;50.356;30.894;2023-03-26T05:33:34;98795.73;;;17.55;82.20
43681;BME280;29281;50.356;30.894;2023-03-26T05:34:43;98791.01;;;17.20;82.16
43681;BME280;29281;50.356;30.894;2023-03-26T05:35:47;98787.21;;;16.92;83.81
43681;BME280;29281;50.356;30.894;2023-03-26T05:36:53;98783.91;;;15.48;89.97
43681;BME280;29281;50.356;30.894;2023-03-26T05:38:16;98770.06;;;15.36;93.27
43681;BME280;29281;50.356;30.894;2023-03-26T05:39:19;98767.45;;;16.31;90.14
43681;BME280;29281;50.356;30.894;2023-03-26T05:40:39;98777.19;;;16.54;87.47
43681;BME280;29281;50.356;30.894;2023-03-26T05:41:43;98787.89;;;15.85;86.65
43681;BME280;29281;50.356;30.894;2023-03-26T05:42:49;98780.07;;;15.59;88.81
43681;BME280;29281;50.356;30.894;2023-03-26T05:44:12;98777.58;;;15.00;93.04
43681;BME280;29281;50.356;30.894;2023-03-26T05:45:15;98767.06;;;14.91;96.06
43681;BME280;29281;50.356;30.894;2023-03-26T05:46:19;98769.05;;;14.64;96.11
43681;BME280;29281;50.356;30.894;2023-03-26T05:47:24;98766.51;;;14.47;98.52
43681;BME280;29281;50.356;30.894;2023-03-26T05:48:29;98760.20;;;14.14;100.00
43681;BME280;29281;50.356;30.894;2023-03-26T05:49:33;98764.59;;;14.31;100.00
43681;BME280;29281;50.356;30.894;2023-03-26T05:50:37;98764.67;;;14.47;100.00
43681;BME280;29281;50.356;30.894;2023-03-26T05:51:43;98768.57;;;14.19;98.98
43681;BME280;29281;50.356;30.894;2023-03-26T05:53:02;98768.68;;;14.09;100.00
43681;BME280;29281;50.356;30.894;2023-03-26T05:54:26;98763.70;;;14.14;100.00
43681;BME280;29281;50.356;30.894;2023-03-26T05:55:47;98776.30;;;13.96;100.00
43681;BME280;29281;50.356;30.894;2023-03-26T05:57:03;98765.39;;;13.81;100.00